sensor_id;sensor_type;location;lat;lon;timestamp;temperature;humidity
38020;DHT22;23829;51.350;17.286;2023-07-31T00:01:58;30.70;46.00
38020;DHT22;23829;51.350;17.286;2023-07-31T00:04:24;30.70;46.30
38020;DHT22;23829;51.350;17.286;2023-07-31T00:06:51;30.70;46.20
38020;DHT22;23829;51.350;17.286;2023-07-31T00:09:17;30.90;45.80
38020;DHT22;23829;51.350;17.286;2023-07-31T00:11:43;31.00;45.60
38020;DHT22;23829;51.350;17.286;2023-07-31T00:14:10;31.00;45.40
38020;DHT22;23829;51.350;17.286;2023-07-31T00:16:36;31.10;45.30
38020;DHT22;23829;51.350;17.286;2023-07-31T00:19:02;31.10;45.20
38020;DHT22;23829;51.350;17.286;2023-07-31T00:21:29;31.10;45.10
38020;DHT22;23829;51.350;17.286;2023-07-31T00:23:55;31.10;45.20
38020;DHT22;23829;51.350;17.286;2023-07-31T00:26:21;31.20;45.10
38020;DHT22;23829;51.350;17.286;2023-07-31T00:28:48;31.10;45.30
38020;DHT22;23829;51.350;17.286;2023-07-31T00:31:14;31.00;46.20
38020;DHT22;23829;51.350;17.286;2023-07-31T00:33:41;31.20;45.10
38020;DHT22;23829;51.350;17.286;2023-07-31T00:36:07;31.10;45.30
38020;DHT22;23829;51.350;17.286;2023-07-31T00:38:33;31.10;45.20
38020;DHT22;23829;51.350;17.286;2023-07-31T00:41:00;31.00;45.40
38020;DHT22;23829;51.350;17.286;2023-07-31T00:43:26;30.90;45.70
38020;DHT22;23829;51.350;17.286;2023-07-31T00:45:52;30.90;45.60
38020;DHT22;23829;51.350;17.286;2023-07-31T00:48:18;30.90;45.70
38020;DHT22;23829;51.350;17.286;2023-07-31T00:50:45;30.90;45.70
38020;DHT22;23829;51.350;17.286;2023-07-31T00:53:11;30.90;45.50
38020;DHT22;23829;51.350;17.286;2023-07-31T00:55:39;30.70;45.60
38020;DHT22;23829;51.350;17.286;2023-07-31T00:58:05;30.80;45.70
38020;DHT22;23829;51.350;17.286;2023-07-31T01:00:32;31.10;45.50
38020;DHT22;23829;51.350;17.286;2023-07-31T01:02:58;31.10;45.00
38020;DHT22;23829;51.350;17.286;2023-07-31T01:05:53;30.90;45.10
38020;DHT22;23829;51.350;17.286;2023-07-31T01:08:41;30.90;45.30
38020;DHT22;23829;51.350;17.286;2023-07-31T01:11:18;31.00;45.30
38020;DHT22;23829;51.350;17.286;2023-07-31T01:13:46;31.00;45.00
38020;DHT22;23829;51.350;17.286;2023-07-31T01:16:13;30.90;45.10
38020;DHT22;23829;51.350;17.286;2023-07-31T01:18:41;30.80;45.00
38020;DHT22;23829;51.350;17.286;2023-07-31T01:24:35;30.70;45.30
38020;DHT22;23829;51.350;17.286;2023-07-31T01:27:08;30.70;45.50
38020;DHT22;23829;51.350;17.286;2023-07-31T01:29:49;30.70;45.30
38020;DHT22;23829;51.350;17.286;2023-07-31T01:32:22;30.70;45.20
38020;DHT22;23829;51.350;17.286;2023-07-31T01:34:51;30.90;44.60
38020;DHT22;23829;51.350;17.286;2023-07-31T01:37:18;30.90;44.60
38020;DHT22;23829;51.350;17.286;2023-07-31T01:39:44;30.90;44.30
38020;DHT22;23829;51.350;17.286;2023-07-31T01:42:11;30.90;44.70
38020;DHT22;23829;51.350;17.286;2023-07-31T01:44:37;30.80;44.70
38020;DHT22;23829;51.350;17.286;2023-07-31T01:47:05;30.90;44.30
38020;DHT22;23829;51.350;17.286;2023-07-31T01:49:32;30.80;44.60
38020;DHT22;23829;51.350;17.286;2023-07-31T01:51:59;30.70;44.80
38020;DHT22;23829;51.350;17.286;2023-07-31T01:54:25;30.80;45.10
38020;DHT22;23829;51.350;17.286;2023-07-31T01:56:51;30.70;44.60
38020;DHT22;23829;51.350;17.286;2023-07-31T01:59:17;30.60;44.70
38020;DHT22;23829;51.350;17.286;2023-07-31T02:01:44;30.60;45.10
38020;DHT22;23829;51.350;17.286;2023-07-31T02:04:10;30.70;44.60
38020;DHT22;23829;51.350;17.286;2023-07-31T02:06:37;30.60;44.90
38020;DHT22;23829;51.350;17.286;2023-07-31T02:09:04;30.60;44.90
38020;DHT22;23829;51.350;17.286;2023-07-31T02:11:32;30.70;44.60
38020;DHT22;23829;51.350;17.286;2023-07-31T02:13:58;30.70;44.50
38020;DHT22;23829;51.350;17.286;2023-07-31T02:16:24;30.70;44.30
38020;DHT22;23829;51.350;17.286;2023-07-31T02:18:50;30.60;44.60
38020;DHT22;23829;51.350;17.286;2023-07-31T02:21:17;30.50;45.00
38020;DHT22;23829;51.350;17.286;2023-07-31T02:23:43;30.60;44.40
38020;DHT22;23829;51.350;17.286;2023-07-31T02:26:10;30.60;44.20
38020;DHT22;23829;51.350;17.286;2023-07-31T02:28:36;30.30;44.90
38020;DHT22;23829;51.350;17.286;2023-07-31T02:31:04;30.30;45.10
38020;DHT22;23829;51.350;17.286;2023-07-31T02:33:30;30.30;44.70
38020;DHT22;23829;51.350;17.286;2023-07-31T02:35:56;30.30;44.90
38020;DHT22;23829;51.350;17.286;2023-07-31T02:38:22;30.10;45.00
38020;DHT22;23829;51.350;17.286;2023-07-31T02:40:49;30.10;45.30
38020;DHT22;23829;51.350;17.286;2023-07-31T02:43:16;30.10;45.20
38020;DHT22;23829;51.350;17.286;2023-07-31T02:45:42;30.30;45.10
38020;DHT22;23829;51.350;17.286;2023-07-31T02:48:10;30.40;44.80
38020;DHT22;23829;51.350;17.286;2023-07-31T02:50:37;30.50;44.50
38020;DHT22;23829;51.350;17.286;2023-07-31T02:53:03;30.30;44.50
38020;DHT22;23829;51.350;17.286;2023-07-31T02:55:29;30.30;44.70
38020;DHT22;23829;51.350;17.286;2023-07-31T02:57:56;30.00;44.80
38020;DHT22;23829;51.350;17.286;2023-07-31T03:00:22;30.10;44.60
38020;DHT22;23829;51.350;17.286;2023-07-31T03:02:48;29.70;45.60
38020;DHT22;23829;51.350;17.286;2023-07-31T03:05:15;29.70;45.40
38020;DHT22;23829;51.350;17.286;2023-07-31T03:07:42;29.80;45.00
38020;DHT22;23829;51.350;17.286;2023-07-31T03:10:08;29.90;44.90
38020;DHT22;23829;51.350;17.286;2023-07-31T03:12:35;29.60;45.10
38020;DHT22;23829;51.350;17.286;2023-07-31T03:15:01;29.50;45.30
38020;DHT22;23829;51.350;17.286;2023-07-31T03:17:27;29.60;44.90
38020;DHT22;23829;51.350;17.286;2023-07-31T03:19:54;29.70;44.90
38020;DHT22;23829;51.350;17.286;2023-07-31T03:22:20;29.80;44.40
38020;DHT22;23829;51.350;17.286;2023-07-31T03:24:46;29.70;44.70
38020;DHT22;23829;51.350;17.286;2023-07-31T03:27:13;29.90;44.40
38020;DHT22;23829;51.350;17.286;2023-07-31T03:29:39;29.60;45.30
38020;DHT22;23829;51.350;17.286;2023-07-31T03:32:06;29.90;44.20
38020;DHT22;23829;51.350;17.286;2023-07-31T03:34:32;30.00;44.00
38020;DHT22;23829;51.350;17.286;2023-07-31T03:36:59;29.90;44.10
38020;DHT22;23829;51.350;17.286;2023-07-31T03:39:25;29.90;43.90
38020;DHT22;23829;51.350;17.286;2023-07-31T03:41:51;29.70;44.30
38020;DHT22;23829;51.350;17.286;2023-07-31T03:44:18;29.80;44.20
38020;DHT22;23829;51.350;17.286;2023-07-31T03:46:44;29.90;44.00
38020;DHT22;23829;51.350;17.286;2023-07-31T03:49:10;30.00;43.90
38020;DHT22;23829;51.350;17.286;2023-07-31T03:51:37;30.00;43.70
38020;DHT22;23829;51.350;17.286;2023-07-31T03:54:03;30.00;43.90
38020;DHT22;23829;51.350;17.286;2023-07-31T03:56:29;29.90;43.80
38020;DHT22;23829;51.350;17.286;2023-07-31T03:58:55;29.90;44.10
38020;DHT22;23829;51.350;17.286;2023-07-31T04:01:22;29.80;44.00
38020;DHT22;23829;51.350;17.286;2023-07-31T04:03:48;30.00;43.80
38020;DHT22;23829;51.350;17.286;2023-07-31T04:06:14;29.70;44.10
38020;DHT22;23829;51.350;17.286;2023-07-31T04:08:44;29.60;44.60
38020;DHT22;23829;51.350;17.286;2023-07-31T04:11:11;29.90;44.10
38020;DHT22;23829;51.350;17.286;2023-07-31T04:13:38;29.70;44.30
38020;DHT22;23829;51.350;17.286;2023-07-31T04:16:05;29.80;44.30
38020;DHT22;23829;51.350;17.286;2023-07-31T04:18:31;29.90;44.00
38020;DHT22;23829;51.350;17.286;2023-07-31T04:20:58;29.90;44.00
38020;DHT22;23829;51.350;17.286;2023-07-31T04:23:25;30.00;43.80
38020;DHT22;23829;51.350;17.286;2023-07-31T04:25:51;30.20;43.20
38020;DHT22;23829;51.350;17.286;2023-07-31T04:28:18;30.50;43.10
38020;DHT22;23829;51.350;17.286;2023-07-31T04:30:44;30.40;43.10
38020;DHT22;23829;51.350;17.286;2023-07-31T04:33:10;30.50;43.20
38020;DHT22;23829;51.350;17.286;2023-07-31T04:35:37;30.40;43.10
38020;DHT22;23829;51.350;17.286;2023-07-31T04:38:03;30.30;43.10
38020;DHT22;23829;51.350;17.286;2023-07-31T04:40:29;30.30;43.30
38020;DHT22;23829;51.350;17.286;2023-07-31T04:42:55;30.20;43.50
38020;DHT22;23829;51.350;17.286;2023-07-31T04:45:22;30.10;43.80
38020;DHT22;23829;51.350;17.286;2023-07-31T04:47:48;30.20;43.90
38020;DHT22;23829;51.350;17.286;2023-07-31T04:50:14;30.30;43.60
38020;DHT22;23829;51.350;17.286;2023-07-31T04:52:41;30.40;43.50
38020;DHT22;23829;51.350;17.286;2023-07-31T04:55:07;30.60;43.30
38020;DHT22;23829;51.350;17.286;2023-07-31T04:57:34;30.50;43.50
38020;DHT22;23829;51.350;17.286;2023-07-31T05:00:00;30.50;43.50
38020;DHT22;23829;51.350;17.286;2023-07-31T05:02:26;30.30;43.70
38020;DHT22;23829;51.350;17.286;2023-07-31T05:04:53;30.50;43.80
38020;DHT22;23829;51.350;17.286;2023-07-31T05:07:19;30.50;43.80
38020;DHT22;23829;51.350;17.286;2023-07-31T05:09:45;30.40;44.30
38020;DHT22;23829;51.350;17.286;2023-07-31T05:12:11;30.60;43.80
38020;DHT22;23829;51.350;17.286;2023-07-31T05:14:38;30.80;43.90
38020;DHT22;23829;51.350;17.286;2023-07-31T05:17:04;30.80;44.10
38020;DHT22;23829;51.350;17.286;2023-07-31T05:19:31;30.70;43.90
38020;DHT22;23829;51.350;17.286;2023-07-31T05:21:57;30.60;44.20
38020;DHT22;23829;51.350;17.286;2023-07-31T05:24:24;30.70;44.40
38020;DHT22;23829;51.350;17.286;2023-07-31T05:26:50;30.70;44.00
38020;DHT22;23829;51.350;17.286;2023-07-31T05:29:16;30.50;44.40
38020;DHT22;23829;51.350;17.286;2023-07-31T05:31:42;30.50;44.60
38020;DHT22;23829;51.350;17.286;2023-07-31T05:34:09;30.30;44.90
38020;DHT22;23829;51.350;17.286;2023-07-31T05:36:35;30.10;45.20
38020;DHT22;23829;51.350;17.286;2023-07-31T05:39:02;30.10;45.80
38020;DHT22;23829;51.350;17.286;2023-07-31T05:41:32;30.20;45.30
38020;DHT22;23829;51.350;17.286;2023-07-31T05:43:58;30.50;44.70
38020;DHT22;23829;51.350;17.286;2023-07-31T05:46:25;30.80;44.40
38020;DHT22;23829;51.350;17.286;2023-07-31T05:48:51;30.50;44.70
38020;DHT22;23829;51.350;17.286;2023-07-31T05:51:17;30.50;45.00
38020;DHT22;23829;51.350;17.286;2023-07-31T05:53:44;30.70;45.30
38020;DHT22;23829;51.350;17.286;2023-07-31T05:56:10;30.90;45.00
38020;DHT22;23829;51.350;17.286;2023-07-31T05:58:36;30.80;44.90
38020;DHT22;23829;51.350;17.286;2023-07-31T06:01:02;30.60;45.10
38020;DHT22;23829;51.350;17.286;2023-07-31T06:03:29;30.50;45.30
38020;DHT22;23829;51.350;17.286;2023-07-31T06:05:55;30.70;45.50
38020;DHT22;23829;51.350;17.286;2023-07-31T06:08:21;31.10;45.00
38020;DHT22;23829;51.350;17.286;2023-07-31T06:10:48;30.90;44.50
38020;DHT22;23829;51.350;17.286;2023-07-31T06:13:14;30.90;44.90
38020;DHT22;23829;51.350;17.286;2023-07-31T06:15:40;30.80;44.80
38020;DHT22;23829;51.350;17.286;2023-07-31T06:18:07;30.50;45.40
38020;DHT22;23829;51.350;17.286;2023-07-31T06:20:34;30.50;45.40
38020;DHT22;23829;51.350;17.286;2023-07-31T06:23:01;30.40;45.70
38020;DHT22;23829;51.350;17.286;2023-07-31T06:25:27;30.40;46.10
38020;DHT22;23829;51.350;17.286;2023-07-31T06:27:53;30.70;45.60
38020;DHT22;23829;51.350;17.286;2023-07-31T06:30:19;30.70;45.60
38020;DHT22;23829;51.350;17.286;2023-07-31T06:32:46;30.50;45.90
38020;DHT22;23829;51.350;17.286;2023-07-31T06:35:12;30.50;46.20
38020;DHT22;23829;51.350;17.286;2023-07-31T06:37:38;30.30;46.40
38020;DHT22;23829;51.350;17.286;2023-07-31T06:40:06;30.20;46.60
38020;DHT22;23829;51.350;17.286;2023-07-31T06:42:35;30.50;46.30
38020;DHT22;23829;51.350;17.286;2023-07-31T06:45:02;30.60;46.10
38020;DHT22;23829;51.350;17.286;2023-07-31T06:47:29;30.50;46.10
38020;DHT22;23829;51.350;17.286;2023-07-31T06:49:56;30.30;46.30
38020;DHT22;23829;51.350;17.286;2023-07-31T06:52:22;30.50;45.90
38020;DHT22;23829;51.350;17.286;2023-07-31T06:55:14;30.40;45.80
38020;DHT22;23829;51.350;17.286;2023-07-31T06:57:41;30.00;46.70
38020;DHT22;23829;51.350;17.286;2023-07-31T07:00:08;30.10;46.70
38020;DHT22;23829;51.350;17.286;2023-07-31T07:02:34;30.10;46.60
38020;DHT22;23829;51.350;17.286;2023-07-31T07:05:01;30.00;46.80
38020;DHT22;23829;51.350;17.286;2023-07-31T07:07:27;30.00;46.80
38020;DHT22;23829;51.350;17.286;2023-07-31T07:09:53;29.80;47.00
38020;DHT22;23829;51.350;17.286;2023-07-31T07:12:20;29.70;47.30
38020;DHT22;23829;51.350;17.286;2023-07-31T07:14:46;30.20;45.70
38020;DHT22;23829;51.350;17.286;2023-07-31T07:17:14;30.70;45.40
38020;DHT22;23829;51.350;17.286;2023-07-31T07:19:40;30.70;45.60
38020;DHT22;23829;51.350;17.286;2023-07-31T07:22:08;30.90;45.50
38020;DHT22;23829;51.350;17.286;2023-07-31T07:24:34;30.90;45.10
38020;DHT22;23829;51.350;17.286;2023-07-31T07:27:00;30.90;45.40
38020;DHT22;23829;51.350;17.286;2023-07-31T07:29:27;30.90;45.40
38020;DHT22;23829;51.350;17.286;2023-07-31T07:31:53;31.00;44.70
38020;DHT22;23829;51.350;17.286;2023-07-31T07:34:19;31.00;44.80
38020;DHT22;23829;51.350;17.286;2023-07-31T07:36:49;31.00;44.50
38020;DHT22;23829;51.350;17.286;2023-07-31T07:39:15;30.90;44.90
38020;DHT22;23829;51.350;17.286;2023-07-31T07:41:41;31.10;45.50
38020;DHT22;23829;51.350;17.286;2023-07-31T07:44:08;31.80;43.50
38020;DHT22;23829;51.350;17.286;2023-07-31T07:46:34;31.30;44.50
38020;DHT22;23829;51.350;17.286;2023-07-31T07:49:01;30.90;44.80
38020;DHT22;23829;51.350;17.286;2023-07-31T07:51:27;31.00;45.30
38020;DHT22;23829;51.350;17.286;2023-07-31T07:53:56;31.30;44.50
38020;DHT22;23829;51.350;17.286;2023-07-31T07:56:23;31.80;43.30
38020;DHT22;23829;51.350;17.286;2023-07-31T07:58:50;31.80;43.70
38020;DHT22;23829;51.350;17.286;2023-07-31T08:01:17;31.80;43.70
38020;DHT22;23829;51.350;17.286;2023-07-31T08:03:43;32.00;42.00
38020;DHT22;23829;51.350;17.286;2023-07-31T08:06:10;32.20;42.80
38020;DHT22;23829;51.350;17.286;2023-07-31T08:08:36;32.20;42.90
38020;DHT22;23829;51.350;17.286;2023-07-31T08:11:03;32.40;42.20
38020;DHT22;23829;51.350;17.286;2023-07-31T08:13:29;32.70;40.80
38020;DHT22;23829;51.350;17.286;2023-07-31T08:15:56;32.80;40.40
38020;DHT22;23829;51.350;17.286;2023-07-31T08:18:22;33.10;40.80
38020;DHT22;23829;51.350;17.286;2023-07-31T08:20:49;33.40;40.30
38020;DHT22;23829;51.350;17.286;2023-07-31T08:23:15;33.50;40.10
38020;DHT22;23829;51.350;17.286;2023-07-31T08:25:42;33.60;38.90
38020;DHT22;23829;51.350;17.286;2023-07-31T08:28:08;33.60;40.10
38020;DHT22;23829;51.350;17.286;2023-07-31T08:30:34;33.90;37.00
38020;DHT22;23829;51.350;17.286;2023-07-31T08:33:01;33.70;38.00
38020;DHT22;23829;51.350;17.286;2023-07-31T08:35:27;34.20;36.20
38020;DHT22;23829;51.350;17.286;2023-07-31T08:37:56;34.30;36.70
38020;DHT22;23829;51.350;17.286;2023-07-31T08:40:23;34.30;36.00
38020;DHT22;23829;51.350;17.286;2023-07-31T08:42:54;34.20;36.90
38020;DHT22;23829;51.350;17.286;2023-07-31T08:45:20;34.30;36.90
38020;DHT22;23829;51.350;17.286;2023-07-31T08:47:48;34.50;35.90
38020;DHT22;23829;51.350;17.286;2023-07-31T08:50:17;34.50;37.10
38020;DHT22;23829;51.350;17.286;2023-07-31T08:52:46;34.30;36.40
38020;DHT22;23829;51.350;17.286;2023-07-31T08:55:13;34.70;35.10
38020;DHT22;23829;51.350;17.286;2023-07-31T08:57:39;34.70;36.90
38020;DHT22;23829;51.350;17.286;2023-07-31T09:00:08;34.50;37.00
38020;DHT22;23829;51.350;17.286;2023-07-31T09:02:41;34.50;37.10
38020;DHT22;23829;51.350;17.286;2023-07-31T09:05:11;34.40;37.80
38020;DHT22;23829;51.350;17.286;2023-07-31T09:07:38;34.80;34.90
38020;DHT22;23829;51.350;17.286;2023-07-31T09:10:05;34.70;34.90
38020;DHT22;23829;51.350;17.286;2023-07-31T09:12:32;34.70;35.60
38020;DHT22;23829;51.350;17.286;2023-07-31T09:14:59;34.80;36.40
38020;DHT22;23829;51.350;17.286;2023-07-31T09:17:35;34.90;37.70
38020;DHT22;23829;51.350;17.286;2023-07-31T09:22:42;34.90;37.70
38020;DHT22;23829;51.350;17.286;2023-07-31T09:25:20;34.80;37.90
38020;DHT22;23829;51.350;17.286;2023-07-31T09:28:19;34.70;39.40
38020;DHT22;23829;51.350;17.286;2023-07-31T09:30:50;34.30;38.80
38020;DHT22;23829;51.350;17.286;2023-07-31T09:33:17;34.50;39.80
38020;DHT22;23829;51.350;17.286;2023-07-31T09:35:44;34.80;38.70
38020;DHT22;23829;51.350;17.286;2023-07-31T09:38:12;34.70;39.20
38020;DHT22;23829;51.350;17.286;2023-07-31T09:40:41;34.70;39.60
38020;DHT22;23829;51.350;17.286;2023-07-31T09:43:13;34.70;40.50
38020;DHT22;23829;51.350;17.286;2023-07-31T09:45:42;34.80;38.70
38020;DHT22;23829;51.350;17.286;2023-07-31T09:50:37;34.50;39.70
38020;DHT22;23829;51.350;17.286;2023-07-31T09:53:07;34.70;40.90
38020;DHT22;23829;51.350;17.286;2023-07-31T09:55:36;34.70;39.50
38020;DHT22;23829;51.350;17.286;2023-07-31T09:58:05;34.60;40.50
38020;DHT22;23829;51.350;17.286;2023-07-31T10:00:33;34.30;40.00
38020;DHT22;23829;51.350;17.286;2023-07-31T10:03:06;34.30;41.10
38020;DHT22;23829;51.350;17.286;2023-07-31T10:05:46;34.00;41.40
38020;DHT22;23829;51.350;17.286;2023-07-31T10:08:17;33.90;40.80
38020;DHT22;23829;51.350;17.286;2023-07-31T10:10:45;34.00;40.90
38020;DHT22;23829;51.350;17.286;2023-07-31T10:13:12;34.20;40.60
38020;DHT22;23829;51.350;17.286;2023-07-31T10:15:40;33.90;41.10
38020;DHT22;23829;51.350;17.286;2023-07-31T10:18:10;33.80;41.30
38020;DHT22;23829;51.350;17.286;2023-07-31T10:20:38;33.80;41.60
38020;DHT22;23829;51.350;17.286;2023-07-31T10:23:05;33.70;41.00
38020;DHT22;23829;51.350;17.286;2023-07-31T10:25:34;33.70;41.30
38020;DHT22;23829;51.350;17.286;2023-07-31T10:28:01;33.80;40.90
38020;DHT22;23829;51.350;17.286;2023-07-31T10:30:30;33.80;41.50
38020;DHT22;23829;51.350;17.286;2023-07-31T10:32:58;34.00;38.70
38020;DHT22;23829;51.350;17.286;2023-07-31T10:35:25;33.70;40.00
38020;DHT22;23829;51.350;17.286;2023-07-31T10:37:53;33.40;39.90
38020;DHT22;23829;51.350;17.286;2023-07-31T10:40:27;33.40;41.10
38020;DHT22;23829;51.350;17.286;2023-07-31T10:42:55;33.10;40.80
38020;DHT22;23829;51.350;17.286;2023-07-31T10:48:05;33.10;40.30
38020;DHT22;23829;51.350;17.286;2023-07-31T10:50:37;33.10;40.80
38020;DHT22;23829;51.350;17.286;2023-07-31T10:53:03;33.00;40.90
38020;DHT22;23829;51.350;17.286;2023-07-31T10:55:33;32.90;41.70
38020;DHT22;23829;51.350;17.286;2023-07-31T10:58:08;33.10;40.80
38020;DHT22;23829;51.350;17.286;2023-07-31T11:00:37;33.20;41.70
38020;DHT22;23829;51.350;17.286;2023-07-31T11:03:17;33.50;40.50
38020;DHT22;23829;51.350;17.286;2023-07-31T11:05:52;33.80;39.10
38020;DHT22;23829;51.350;17.286;2023-07-31T11:08:32;33.50;40.30
38020;DHT22;23829;51.350;17.286;2023-07-31T11:13:42;33.50;39.70
38020;DHT22;23829;51.350;17.286;2023-07-31T11:16:12;33.30;39.50
38020;DHT22;23829;51.350;17.286;2023-07-31T11:18:43;33.30;39.40
38020;DHT22;23829;51.350;17.286;2023-07-31T11:21:20;33.20;38.70
38020;DHT22;23829;51.350;17.286;2023-07-31T11:23:49;33.00;39.40
38020;DHT22;23829;51.350;17.286;2023-07-31T11:26:16;33.10;40.90
38020;DHT22;23829;51.350;17.286;2023-07-31T11:28:42;33.30;40.90
38020;DHT22;23829;51.350;17.286;2023-07-31T11:31:10;33.40;42.20
38020;DHT22;23829;51.350;17.286;2023-07-31T11:33:37;33.40;40.40
38020;DHT22;23829;51.350;17.286;2023-07-31T11:36:03;33.70;39.50
38020;DHT22;23829;51.350;17.286;2023-07-31T11:38:31;33.70;40.20
38020;DHT22;23829;51.350;17.286;2023-07-31T11:41:01;33.70;39.80
38020;DHT22;23829;51.350;17.286;2023-07-31T11:43:31;33.80;39.50
38020;DHT22;23829;51.350;17.286;2023-07-31T11:45:59;33.50;40.00
38020;DHT22;23829;51.350;17.286;2023-07-31T11:48:33;33.70;39.70
38020;DHT22;23829;51.350;17.286;2023-07-31T11:51:03;33.80;39.80
38020;DHT22;23829;51.350;17.286;2023-07-31T11:53:37;33.90;40.00
38020;DHT22;23829;51.350;17.286;2023-07-31T11:56:06;33.80;40.30
38020;DHT22;23829;51.350;17.286;2023-07-31T11:58:34;34.20;38.60
38020;DHT22;23829;51.350;17.286;2023-07-31T12:01:02;34.60;37.30
38020;DHT22;23829;51.350;17.286;2023-07-31T12:03:29;34.60;38.20
38020;DHT22;23829;51.350;17.286;2023-07-31T12:05:56;34.30;38.60
38020;DHT22;23829;51.350;17.286;2023-07-31T12:08:23;34.30;38.80
38020;DHT22;23829;51.350;17.286;2023-07-31T12:10:51;34.20;38.50
38020;DHT22;23829;51.350;17.286;2023-07-31T12:13:26;34.50;37.40
38020;DHT22;23829;51.350;17.286;2023-07-31T12:15:55;34.10;38.30
38020;DHT22;23829;51.350;17.286;2023-07-31T12:18:25;33.80;38.40
38020;DHT22;23829;51.350;17.286;2023-07-31T12:21:00;33.70;38.30
38020;DHT22;23829;51.350;17.286;2023-07-31T12:23:28;34.10;37.40
38020;DHT22;23829;51.350;17.286;2023-07-31T12:26:02;34.60;36.30
38020;DHT22;23829;51.350;17.286;2023-07-31T12:28:29;34.40;36.40
38020;DHT22;23829;51.350;17.286;2023-07-31T12:30:58;34.00;37.00
38020;DHT22;23829;51.350;17.286;2023-07-31T12:33:32;34.10;37.80
38020;DHT22;23829;51.350;17.286;2023-07-31T12:36:01;34.50;37.30
38020;DHT22;23829;51.350;17.286;2023-07-31T12:38:27;34.80;36.30
38020;DHT22;23829;51.350;17.286;2023-07-31T12:40:54;34.60;36.20
38020;DHT22;23829;51.350;17.286;2023-07-31T12:43:20;34.80;35.80
38020;DHT22;23829;51.350;17.286;2023-07-31T12:45:46;34.70;36.10
38020;DHT22;23829;51.350;17.286;2023-07-31T12:48:13;34.70;36.30
38020;DHT22;23829;51.350;17.286;2023-07-31T12:50:40;34.40;36.20
38020;DHT22;23829;51.350;17.286;2023-07-31T12:53:07;34.80;35.60
38020;DHT22;23829;51.350;17.286;2023-07-31T12:55:33;34.90;35.50
38020;DHT22;23829;51.350;17.286;2023-07-31T12:58:01;34.70;35.50
38020;DHT22;23829;51.350;17.286;2023-07-31T13:00:27;34.40;36.70
38020;DHT22;23829;51.350;17.286;2023-07-31T13:02:53;34.70;35.70
38020;DHT22;23829;51.350;17.286;2023-07-31T13:05:21;34.80;35.80
38020;DHT22;23829;51.350;17.286;2023-07-31T13:07:47;35.10;35.10
38020;DHT22;23829;51.350;17.286;2023-07-31T13:10:14;35.10;34.70
38020;DHT22;23829;51.350;17.286;2023-07-31T13:12:40;35.20;34.40
38020;DHT22;23829;51.350;17.286;2023-07-31T13:15:07;35.10;34.30
38020;DHT22;23829;51.350;17.286;2023-07-31T13:17:34;35.30;34.80
38020;DHT22;23829;51.350;17.286;2023-07-31T13:20:00;35.30;34.50
38020;DHT22;23829;51.350;17.286;2023-07-31T13:22:26;35.30;34.30
38020;DHT22;23829;51.350;17.286;2023-07-31T13:24:53;35.10;35.30
38020;DHT22;23829;51.350;17.286;2023-07-31T13:27:19;35.00;34.90
38020;DHT22;23829;51.350;17.286;2023-07-31T13:29:48;34.80;34.90
38020;DHT22;23829;51.350;17.286;2023-07-31T13:32:16;35.00;34.60
38020;DHT22;23829;51.350;17.286;2023-07-31T13:34:43;35.00;34.40
38020;DHT22;23829;51.350;17.286;2023-07-31T13:37:10;35.00;35.50
38020;DHT22;23829;51.350;17.286;2023-07-31T13:39:36;35.20;34.90
38020;DHT22;23829;51.350;17.286;2023-07-31T13:42:04;35.30;34.50
38020;DHT22;23829;51.350;17.286;2023-07-31T13:44:32;35.20;35.50
38020;DHT22;23829;51.350;17.286;2023-07-31T13:47:00;35.40;34.80
38020;DHT22;23829;51.350;17.286;2023-07-31T13:49:27;35.60;33.90
38020;DHT22;23829;51.350;17.286;2023-07-31T13:51:53;35.90;33.80
38020;DHT22;23829;51.350;17.286;2023-07-31T13:54:19;35.70;34.70
38020;DHT22;23829;51.350;17.286;2023-07-31T13:56:46;35.80;34.00
38020;DHT22;23829;51.350;17.286;2023-07-31T13:59:12;35.70;33.30
38020;DHT22;23829;51.350;17.286;2023-07-31T14:01:41;35.10;34.40
38020;DHT22;23829;51.350;17.286;2023-07-31T14:04:07;35.10;35.40
38020;DHT22;23829;51.350;17.286;2023-07-31T14:06:33;35.10;34.80
38020;DHT22;23829;51.350;17.286;2023-07-31T14:09:00;35.30;35.40
38020;DHT22;23829;51.350;17.286;2023-07-31T14:11:26;35.30;35.30
38020;DHT22;23829;51.350;17.286;2023-07-31T14:13:53;35.40;35.00
38020;DHT22;23829;51.350;17.286;2023-07-31T14:16:19;35.10;35.80
38020;DHT22;23829;51.350;17.286;2023-07-31T14:18:45;35.00;36.00
38020;DHT22;23829;51.350;17.286;2023-07-31T14:21:12;34.80;35.70
38020;DHT22;23829;51.350;17.286;2023-07-31T14:23:39;35.00;36.70
38020;DHT22;23829;51.350;17.286;2023-07-31T14:26:06;35.00;35.50
38020;DHT22;23829;51.350;17.286;2023-07-31T14:28:32;35.40;35.20
38020;DHT22;23829;51.350;17.286;2023-07-31T14:30:59;35.60;34.80
38020;DHT22;23829;51.350;17.286;2023-07-31T14:33:25;35.60;35.20
38020;DHT22;23829;51.350;17.286;2023-07-31T14:35:52;35.70;35.00
38020;DHT22;23829;51.350;17.286;2023-07-31T14:38:18;35.80;34.50
38020;DHT22;23829;51.350;17.286;2023-07-31T14:40:45;35.80;34.10
38020;DHT22;23829;51.350;17.286;2023-07-31T14:43:11;35.90;33.80
38020;DHT22;23829;51.350;17.286;2023-07-31T14:45:37;35.80;33.70
38020;DHT22;23829;51.350;17.286;2023-07-31T14:48:04;35.80;33.60
38020;DHT22;23829;51.350;17.286;2023-07-31T14:50:30;35.60;34.40
38020;DHT22;23829;51.350;17.286;2023-07-31T14:52:57;35.50;34.70
38020;DHT22;23829;51.350;17.286;2023-07-31T14:55:23;36.00;34.10
38020;DHT22;23829;51.350;17.286;2023-07-31T14:57:49;36.10;34.90
38020;DHT22;23829;51.350;17.286;2023-07-31T15:00:16;36.30;33.80
38020;DHT22;23829;51.350;17.286;2023-07-31T15:02:42;36.30;33.00
38020;DHT22;23829;51.350;17.286;2023-07-31T15:05:09;36.10;34.20
38020;DHT22;23829;51.350;17.286;2023-07-31T15:07:35;36.20;34.00
38020;DHT22;23829;51.350;17.286;2023-07-31T15:10:02;36.50;32.90
38020;DHT22;23829;51.350;17.286;2023-07-31T15:12:29;36.20;33.60
38020;DHT22;23829;51.350;17.286;2023-07-31T15:14:55;36.40;33.70
38020;DHT22;23829;51.350;17.286;2023-07-31T15:17:22;36.30;33.70
38020;DHT22;23829;51.350;17.286;2023-07-31T15:19:48;36.30;32.80
38020;DHT22;23829;51.350;17.286;2023-07-31T15:22:14;36.20;33.20
38020;DHT22;23829;51.350;17.286;2023-07-31T15:24:41;36.30;32.70
38020;DHT22;23829;51.350;17.286;2023-07-31T15:27:07;36.50;31.70
38020;DHT22;23829;51.350;17.286;2023-07-31T15:29:34;36.40;31.60
38020;DHT22;23829;51.350;17.286;2023-07-31T15:32:04;36.40;31.90